Terminal Aerodrome Forecast
Issued by NWS

Home | Current Version | Previous Version | Graphics & Text | Print | Product List | Glossary On
Versions: 1 2 3 4 5 6 7 8 9 10 11 12
000
FTUS45 KGGW 171725
TAFOLF
TAF
KOLF 171725Z 1718/1818 07006KT P6SM SCT120
     FM172100 29005KT P6SM SCT110
     FM180000 33007KT P6SM BKN090
     FM180600 30011KT P6SM FEW035
     FM181200 VRB04KT P6SM SCT050=

USA.gov is the U.S. government's official web portal to all federal, state and local government web resources and services.